createdAt,value
2023-01-29T00:01:05.452Z,0.56
2023-01-29T00:04:05.703Z,0.69
2023-01-29T00:07:05.477Z,0.35
2023-01-29T00:10:05.478Z,0.51
2023-01-29T00:13:05.483Z,0.44
2023-01-29T00:16:05.497Z,0.15
2023-01-29T00:19:05.583Z,0.01
2023-01-29T00:22:05.562Z,0.16
2023-01-29T00:25:05.510Z,0.07
2023-01-29T00:28:05.539Z,0.19
2023-01-29T00:31:10.653Z,0.31
2023-01-29T00:34:06.513Z,0.16
2023-01-29T00:37:05.556Z,0.06
2023-01-29T00:40:05.512Z,0.02
2023-01-29T00:43:05.505Z,0.03
2023-01-29T00:46:05.507Z,0.03
2023-01-29T00:49:05.536Z,0.07
2023-01-29T00:52:05.584Z,0.14
2023-01-29T00:55:05.521Z,0.08
2023-01-29T00:58:05.520Z,0.24
2023-01-29T01:01:05.605Z,0.18
2023-01-29T01:04:05.595Z,0.02
2023-01-29T01:07:05.560Z,0
2023-01-29T01:10:05.520Z,0.02
2023-01-29T01:13:05.601Z,0.09
2023-01-29T01:16:05.524Z,0.23
2023-01-29T01:19:05.567Z,0.16
2023-01-29T01:22:05.541Z,0.12
2023-01-29T01:25:05.639Z,0.03
2023-01-29T01:28:05.565Z,0
2023-01-29T01:31:05.607Z,0.05
2023-01-29T01:34:05.581Z,0.39
2023-01-29T01:37:05.671Z,0.26
2023-01-29T01:40:05.734Z,0.38
2023-01-29T01:43:05.604Z,0.52
2023-01-29T01:46:05.586Z,0.68
2023-01-29T01:49:05.552Z,1.26
2023-01-29T01:52:05.532Z,0.99
2023-01-29T01:55:05.560Z,0.91
2023-01-29T01:58:05.684Z,0.85
2023-01-29T02:01:05.854Z,0.29
2023-01-29T02:04:05.669Z,0.29
2023-01-29T02:07:05.731Z,0.08
2023-01-29T02:10:05.717Z,0.1
2023-01-29T02:13:05.648Z,0.08
2023-01-29T02:16:05.588Z,0.32
2023-01-29T02:19:05.949Z,0.26
2023-01-29T02:22:05.662Z,0.4
2023-01-29T02:25:05.709Z,0.52
2023-01-29T02:28:05.633Z,0.35
2023-01-29T02:31:05.621Z,0.15
2023-01-29T02:34:05.672Z,0.35
2023-01-29T02:37:05.693Z,0.48
2023-01-29T02:40:05.632Z,0.35
2023-01-29T02:43:05.589Z,0.06
2023-01-29T02:46:05.677Z,0.41
2023-01-29T02:49:05.704Z,0.7
2023-01-29T02:52:05.663Z,0.54
2023-01-29T02:55:05.576Z,0.59
2023-01-29T02:58:05.683Z,0.21
2023-01-29T03:01:05.706Z,0.02
2023-01-29T03:04:05.688Z,0.08
2023-01-29T03:07:05.651Z,0.33
2023-01-29T03:10:05.661Z,0.13
2023-01-29T03:13:05.689Z,0.01
2023-01-29T03:16:05.771Z,0.12
2023-01-29T03:19:05.713Z,0.13
2023-01-29T03:22:05.651Z,0.25
2023-01-29T03:25:05.639Z,0.09
2023-01-29T03:28:05.700Z,0.13
2023-01-29T03:31:05.660Z,0.09
2023-01-29T03:34:05.614Z,0.05
2023-01-29T03:37:05.814Z,0.07
2023-01-29T03:40:05.642Z,0.4
2023-01-29T03:43:05.715Z,0.22
2023-01-29T03:46:05.720Z,0.1
2023-01-29T03:49:05.649Z,0.13
2023-01-29T03:52:05.707Z,0.07
2023-01-29T03:55:05.652Z,0.09
2023-01-29T03:58:05.746Z,0.16
2023-01-29T04:01:05.621Z,0.09
2023-01-29T04:04:05.840Z,0.01
2023-01-29T04:07:05.680Z,0.27
2023-01-29T04:10:05.687Z,0.29
2023-01-29T04:13:05.753Z,0.2
2023-01-29T04:16:05.669Z,0.26
2023-01-29T04:19:05.838Z,0.1
2023-01-29T04:22:05.716Z,0.21
2023-01-29T04:25:05.784Z,0.32
2023-01-29T04:28:05.663Z,0.38
2023-01-29T04:31:05.873Z,0.1
2023-01-29T04:34:05.812Z,0.3
2023-01-29T04:37:05.734Z,0.18
2023-01-29T04:40:05.770Z,0.76
2023-01-29T04:43:05.724Z,0.44
2023-01-29T04:46:07.845Z,0.19
2023-01-29T04:49:05.827Z,0.43
2023-01-29T04:52:05.729Z,0.27
2023-01-29T04:55:05.732Z,0.52
2023-01-29T04:58:05.764Z,0.1
2023-01-29T05:01:05.902Z,0.09
2023-01-29T05:04:05.834Z,0.37
2023-01-29T05:07:05.840Z,0.15
2023-01-29T05:10:05.828Z,0.2
2023-01-29T05:13:05.873Z,0.3
2023-01-29T05:16:05.847Z,0.08
2023-01-29T05:19:05.892Z,0.04
2023-01-29T05:22:05.751Z,0.31
2023-01-29T05:25:05.914Z,0.01
2023-01-29T05:28:05.712Z,0.09
2023-01-29T05:31:05.832Z,0.42
2023-01-29T05:34:05.911Z,0.28
2023-01-29T05:37:05.824Z,0.12
2023-01-29T05:40:05.794Z,0.09
2023-01-29T05:43:05.748Z,0.1
2023-01-29T05:46:05.781Z,0
2023-01-29T05:49:05.898Z,0
2023-01-29T05:52:05.807Z,0.09
2023-01-29T05:55:05.749Z,0.19
2023-01-29T05:58:06.069Z,0.04
2023-01-29T06:01:05.769Z,0.01
2023-01-29T06:04:05.872Z,0.07
2023-01-29T06:07:05.744Z,0.2
2023-01-29T06:10:05.755Z,0.03
2023-01-29T06:13:05.893Z,0.17
2023-01-29T06:16:06.086Z,0.29
2023-01-29T06:19:05.747Z,0.32
2023-01-29T06:22:05.785Z,0.78
2023-01-29T06:25:05.774Z,0.06
2023-01-29T06:28:05.895Z,0.27
2023-01-29T06:31:21.236Z,0.09
2023-01-29T06:34:05.768Z,0.08
2023-01-29T06:37:05.823Z,0.17
2023-01-29T06:40:05.819Z,0.14
2023-01-29T06:43:05.824Z,0.19
2023-01-29T06:46:05.849Z,0.49
2023-01-29T06:49:05.888Z,0.54
2023-01-29T06:52:05.795Z,0.28
2023-01-29T06:55:05.804Z,0.05
2023-01-29T06:58:05.813Z,0.13
2023-01-29T07:01:05.911Z,0.29
2023-01-29T07:04:05.796Z,0.14
2023-01-29T07:07:05.866Z,0.29
2023-01-29T07:10:06.112Z,0.37
2023-01-29T07:13:05.928Z,0.29
2023-01-29T07:16:05.896Z,0.18
2023-01-29T07:19:05.903Z,0.15
2023-01-29T07:22:05.883Z,0.21
2023-01-29T07:25:05.913Z,0.4
2023-01-29T07:28:05.899Z,0.3
2023-01-29T07:31:05.878Z,0.39
2023-01-29T07:34:05.899Z,0.31
2023-01-29T07:37:05.811Z,0.2
2023-01-29T07:40:05.966Z,0.58
2023-01-29T07:43:06.123Z,0.43
2023-01-29T07:46:05.934Z,0.11
2023-01-29T07:49:05.921Z,0
2023-01-29T07:52:05.896Z,0.19
2023-01-29T07:55:05.871Z,0.12
2023-01-29T07:58:05.925Z,0.49
2023-01-29T08:01:05.967Z,0.34
2023-01-29T08:04:05.931Z,0.39
2023-01-29T08:07:05.925Z,0.47
2023-01-29T08:10:05.976Z,0.52
2023-01-29T08:13:06.725Z,0.76
2023-01-29T08:16:05.926Z,0.27
2023-01-29T08:19:05.975Z,0.15
2023-01-29T08:22:05.943Z,0.02
2023-01-29T08:25:08.680Z,0.06
2023-01-29T08:28:05.991Z,0.13
2023-01-29T08:31:06.009Z,0.35
2023-01-29T08:34:05.890Z,0.23
2023-01-29T08:37:05.977Z,0.05
2023-01-29T08:40:05.867Z,0.25
2023-01-29T08:43:07.738Z,0.2
2023-01-29T08:46:05.958Z,0.41
2023-01-29T08:49:05.974Z,0.4
2023-01-29T08:52:05.938Z,0.38
2023-01-29T08:55:05.892Z,0.67
2023-01-29T08:58:05.918Z,0.67
2023-01-29T09:01:05.999Z,0.62
2023-01-29T09:04:05.885Z,0.48
2023-01-29T09:07:05.930Z,0.47
2023-01-29T09:10:05.939Z,0.25
2023-01-29T09:13:05.926Z,0.39
2023-01-29T09:16:05.935Z,0.28
2023-01-29T09:19:06.026Z,0.34
2023-01-29T09:22:05.923Z,0.51
2023-01-29T09:25:05.994Z,0.33
2023-01-29T09:28:06.015Z,0.4
2023-01-29T09:31:06.034Z,0.26
2023-01-29T09:34:06.003Z,0.44
2023-01-29T09:37:06.083Z,0.82
2023-01-29T09:40:05.949Z,0.89
2023-01-29T09:43:06.005Z,0.73
2023-01-29T09:46:06.002Z,0.52
2023-01-29T09:49:06.081Z,0.82
2023-01-29T09:52:05.990Z,0.54
2023-01-29T09:55:06.054Z,0.4
2023-01-29T09:58:05.987Z,0.74
2023-01-29T10:01:06.242Z,0.48
2023-01-29T10:04:06.015Z,0.41
2023-01-29T10:07:05.957Z,0.23
2023-01-29T10:10:05.984Z,0.21
2023-01-29T10:13:06.114Z,0.46
2023-01-29T10:16:06.067Z,0.31
2023-01-29T10:19:06.074Z,0.61
2023-01-29T10:22:06.072Z,0.54
2023-01-29T10:25:06.005Z,0.46
2023-01-29T10:28:06.006Z,0.34
2023-01-29T10:31:06.058Z,0.22
2023-01-29T10:34:05.984Z,0.49
2023-01-29T10:37:06.005Z,0.16
2023-01-29T10:40:06.061Z,0.45
2023-01-29T10:43:06.067Z,0.67
2023-01-29T10:46:06.037Z,0.67
2023-01-29T10:49:06.053Z,0.79
2023-01-29T10:52:06.073Z,0.75
2023-01-29T10:55:06.000Z,0.7
2023-01-29T10:58:06.076Z,0.61
2023-01-29T11:01:06.105Z,0.75
2023-01-29T11:04:06.037Z,0.75
2023-01-29T11:07:06.136Z,0.9
2023-01-29T11:10:06.091Z,0.98
2023-01-29T11:13:06.115Z,1.18
2023-01-29T11:16:06.116Z,0.83
2023-01-29T11:19:05.993Z,0.6
2023-01-29T11:22:06.057Z,0.32
2023-01-29T11:25:06.161Z,0.82
2023-01-29T11:28:06.148Z,0.84
2023-01-29T11:31:06.136Z,0.79
2023-01-29T11:34:06.284Z,0.89
2023-01-29T11:37:06.140Z,0.51
2023-01-29T11:40:06.120Z,0.64
2023-01-29T11:43:06.162Z,0.64
2023-01-29T11:46:06.125Z,0.88
2023-01-29T11:49:20.292Z,0.37
2023-01-29T11:52:06.040Z,0.61
2023-01-29T11:55:06.102Z,0.61
2023-01-29T11:58:06.160Z,0.54
2023-01-29T12:01:06.087Z,0.54
2023-01-29T12:04:06.235Z,0.4
2023-01-29T12:07:06.156Z,0.64
2023-01-29T12:10:06.072Z,0.3
2023-01-29T12:13:06.148Z,0.3
2023-01-29T12:16:06.162Z,0.19
2023-01-29T12:19:06.140Z,0.53
2023-01-29T12:22:06.218Z,0.12
2023-01-29T12:25:06.197Z,0.36
2023-01-29T12:28:07.833Z,0.56
2023-01-29T12:31:06.266Z,0.54
2023-01-29T12:34:06.172Z,0.88
2023-01-29T12:37:06.107Z,0.45
2023-01-29T12:40:06.206Z,0.47
2023-01-29T12:43:06.138Z,0.36
2023-01-29T12:46:06.147Z,0.3
2023-01-29T12:49:06.164Z,0.54
2023-01-29T12:52:06.110Z,0.64
2023-01-29T12:55:06.175Z,0.58
2023-01-29T12:58:06.164Z,0.4
2023-01-29T13:01:06.096Z,0.4
2023-01-29T13:04:06.237Z,0.45
2023-01-29T13:07:06.214Z,0.28
2023-01-29T13:10:06.172Z,0.57
2023-01-29T13:13:06.086Z,0.71
2023-01-29T13:16:06.182Z,0.49
2023-01-29T13:19:06.164Z,0.74
2023-01-29T13:22:06.195Z,0.75
2023-01-29T13:25:06.205Z,0.17
2023-01-29T13:28:06.222Z,0.35
2023-01-29T13:31:06.212Z,0.39
2023-01-29T13:34:06.481Z,0.65
2023-01-29T13:37:06.205Z,0.38
2023-01-29T13:40:06.294Z,0.37
2023-01-29T13:43:06.275Z,0.56
2023-01-29T13:46:06.245Z,0.51
2023-01-29T13:49:06.304Z,0.26
2023-01-29T13:52:06.240Z,0.19
2023-01-29T13:55:06.249Z,0.23
2023-01-29T13:58:06.256Z,0.42
2023-01-29T14:01:06.265Z,0.22
2023-01-29T14:04:06.251Z,0.24
2023-01-29T14:07:06.232Z,0.58
2023-01-29T14:10:06.253Z,0.93
2023-01-29T14:13:08.611Z,0.63
2023-01-29T14:16:06.229Z,0.69
2023-01-29T14:19:06.238Z,0.41
2023-01-29T14:22:06.229Z,0.3
2023-01-29T14:25:06.194Z,0.47
2023-01-29T14:28:06.239Z,0.43
2023-01-29T14:31:06.307Z,0.44
2023-01-29T14:34:06.179Z,0.48
2023-01-29T14:37:06.301Z,0.4
2023-01-29T14:40:06.226Z,0.44
2023-01-29T14:43:06.212Z,0.24
2023-01-29T14:46:06.338Z,0.18
2023-01-29T14:49:06.185Z,0.29
2023-01-29T14:52:06.272Z,0.38
2023-01-29T14:55:06.199Z,0.29
2023-01-29T14:58:06.215Z,0.22
2023-01-29T15:01:06.221Z,0.16
2023-01-29T15:04:06.280Z,0.13
2023-01-29T15:07:06.316Z,0.25
2023-01-29T15:10:21.295Z,0.05
2023-01-29T15:13:06.287Z,0.38
2023-01-29T15:16:06.293Z,0.32
2023-01-29T15:19:06.228Z,0.13
2023-01-29T15:22:06.355Z,0.33
2023-01-29T15:25:06.216Z,0.24
2023-01-29T15:28:06.442Z,0.11
2023-01-29T15:31:06.333Z,0.03
2023-01-29T15:34:06.300Z,0.17
2023-01-29T15:37:06.276Z,0.12
2023-01-29T15:40:06.357Z,0.02
2023-01-29T15:43:06.276Z,0
2023-01-29T15:46:06.446Z,0
2023-01-29T15:49:06.367Z,0.03
2023-01-29T15:52:06.305Z,0.02
2023-01-29T15:55:06.318Z,0.18
2023-01-29T15:58:06.378Z,0.01
2023-01-29T16:01:06.298Z,0.18
2023-01-29T16:04:06.320Z,0.07
2023-01-29T16:07:06.284Z,0.03
2023-01-29T16:10:06.289Z,0.04
2023-01-29T16:13:06.281Z,0.08
2023-01-29T16:16:06.355Z,0.2
2023-01-29T16:19:06.274Z,0.13
2023-01-29T16:22:06.312Z,0.06
2023-01-29T16:25:06.343Z,0.03
2023-01-29T16:28:06.292Z,0.23
2023-01-29T16:31:06.442Z,0.09
2023-01-29T16:34:06.310Z,0.15
2023-01-29T16:37:06.353Z,0.17
2023-01-29T16:40:06.309Z,0.19
2023-01-29T16:43:06.394Z,0
2023-01-29T16:46:06.343Z,0.13
2023-01-29T16:49:06.349Z,0.05
2023-01-29T16:52:06.312Z,0.16
2023-01-29T16:55:06.333Z,0.04
2023-01-29T16:58:06.371Z,0.03
2023-01-29T17:01:06.407Z,0.13
2023-01-29T17:04:06.540Z,0.11
2023-01-29T17:07:06.361Z,0.15
2023-01-29T17:10:06.316Z,0
2023-01-29T17:13:06.344Z,0.08
2023-01-29T17:16:06.331Z,0.11
2023-01-29T17:19:06.472Z,0.16
2023-01-29T17:22:06.358Z,0.09
2023-01-29T17:25:06.373Z,0.17
2023-01-29T17:28:06.416Z,0.08
2023-01-29T17:31:07.270Z,0.22
2023-01-29T17:34:06.419Z,0.18
2023-01-29T17:37:06.443Z,0.2
2023-01-29T17:40:06.373Z,0.16
2023-01-29T17:43:06.453Z,0.22
2023-01-29T17:46:06.438Z,0.14
2023-01-29T17:49:06.425Z,0.23
2023-01-29T17:52:06.339Z,0.31
2023-01-29T17:55:06.383Z,0.3
2023-01-29T17:58:06.418Z,0.56
2023-01-29T18:01:06.416Z,0.37
2023-01-29T18:04:06.469Z,0.31
2023-01-29T18:07:06.428Z,0.31
2023-01-29T18:10:06.432Z,0.34
2023-01-29T18:13:06.382Z,0.4
2023-01-29T18:16:06.468Z,0.43
2023-01-29T18:19:06.436Z,0.17
2023-01-29T18:22:06.452Z,0.24
2023-01-29T18:25:06.400Z,0.13
2023-01-29T18:28:06.464Z,0.08
2023-01-29T18:31:06.667Z,0.46
2023-01-29T18:34:06.607Z,0.24
2023-01-29T18:37:06.388Z,0.22
2023-01-29T18:40:06.512Z,0.24
2023-01-29T18:43:06.493Z,0.19
2023-01-29T18:46:06.533Z,0.42
2023-01-29T18:49:06.393Z,0.42
2023-01-29T18:52:06.440Z,0.14
2023-01-29T18:55:06.494Z,0.21
2023-01-29T18:58:25.413Z,0.17
2023-01-29T19:01:06.456Z,0.22
2023-01-29T19:04:06.431Z,0.35
2023-01-29T19:07:06.519Z,0.27
2023-01-29T19:10:06.479Z,0.22
2023-01-29T19:13:06.708Z,0.14
2023-01-29T19:16:07.901Z,0.14
2023-01-29T19:19:06.431Z,0.29
2023-01-29T19:22:06.502Z,0.27
2023-01-29T19:25:06.452Z,0.2
2023-01-29T19:28:06.554Z,0.28
2023-01-29T19:31:06.577Z,0.36
2023-01-29T19:34:06.393Z,0.18
2023-01-29T19:37:06.469Z,0.32
2023-01-29T19:40:06.514Z,0.14
2023-01-29T19:43:06.477Z,0.26
2023-01-29T19:46:06.461Z,0.14
2023-01-29T19:49:06.477Z,0.01
2023-01-29T19:52:06.470Z,0.29
2023-01-29T19:55:06.561Z,0.23
2023-01-29T19:58:10.168Z,0.28
2023-01-29T20:01:06.552Z,0.08
2023-01-29T20:04:06.485Z,0.34
2023-01-29T20:07:06.608Z,0.16
2023-01-29T20:10:06.519Z,0.17
2023-01-29T20:13:06.560Z,0.3
2023-01-29T20:16:06.583Z,0.07
2023-01-29T20:19:13.481Z,0.35
2023-01-29T20:22:06.456Z,0.22
2023-01-29T20:25:06.521Z,0.23
2023-01-29T20:28:06.606Z,0.08
2023-01-29T20:31:06.560Z,0.08
2023-01-29T20:34:06.657Z,0.43
2023-01-29T20:37:06.492Z,0.15
2023-01-29T20:40:06.645Z,0.15
2023-01-29T20:43:06.760Z,0.36
2023-01-29T20:46:08.926Z,0.25
2023-01-29T20:49:06.583Z,0.33
2023-01-29T20:52:06.658Z,0.32
2023-01-29T20:55:06.521Z,0.36
2023-01-29T20:58:06.874Z,0.47
2023-01-29T21:01:06.544Z,0.44
2023-01-29T21:04:06.547Z,0.28
2023-01-29T21:07:06.608Z,0.29
2023-01-29T21:10:06.714Z,0.57
2023-01-29T21:13:06.633Z,0.13
2023-01-29T21:16:06.500Z,0.48
2023-01-29T21:19:06.694Z,0.41
2023-01-29T21:22:06.500Z,0.28
2023-01-29T21:25:06.551Z,0.29
2023-01-29T21:28:06.620Z,0.47
2023-01-29T21:31:06.639Z,0.55
2023-01-29T21:34:07.241Z,0.4
2023-01-29T21:37:08.061Z,0.61
2023-01-29T21:40:06.942Z,0.44
2023-01-29T21:43:07.159Z,0.73
2023-01-29T21:46:11.515Z,0.57
2023-01-29T21:49:06.583Z,0.96
2023-01-29T21:52:06.560Z,1.47
2023-01-29T21:55:09.183Z,1.37
2023-01-29T21:58:06.560Z,1.35
2023-01-29T22:01:11.328Z,1.58
2023-01-29T22:04:06.661Z,1.37
2023-01-29T22:07:06.591Z,1.34
2023-01-29T22:10:06.601Z,1.34
2023-01-29T22:13:06.549Z,1.67
2023-01-29T22:16:06.689Z,1.17
2023-01-29T22:19:06.624Z,1.27
2023-01-29T22:22:06.638Z,1.26
2023-01-29T22:25:06.654Z,1.46
2023-01-29T22:28:06.659Z,1.41
2023-01-29T22:31:06.753Z,1.49
2023-01-29T22:34:06.775Z,1.66
2023-01-29T22:37:06.596Z,1.84
2023-01-29T22:40:06.638Z,1.39
2023-01-29T22:43:06.593Z,1.62
2023-01-29T22:46:06.623Z,1.64
2023-01-29T22:49:06.623Z,1.52
2023-01-29T22:52:06.605Z,1.54
2023-01-29T22:55:06.674Z,1.67
2023-01-29T22:58:06.657Z,1.41
2023-01-29T23:01:06.640Z,1.38
2023-01-29T23:04:06.597Z,1.43
2023-01-29T23:07:06.719Z,1.48
2023-01-29T23:10:07.201Z,1.15
2023-01-29T23:13:06.651Z,1.48
2023-01-29T23:16:06.824Z,1.06
2023-01-29T23:19:06.659Z,1.1
2023-01-29T23:22:06.740Z,0.75
2023-01-29T23:25:06.664Z,1.15
2023-01-29T23:28:06.693Z,0.71
2023-01-29T23:31:06.781Z,1
2023-01-29T23:34:06.742Z,0.93
2023-01-29T23:37:06.687Z,0.98
2023-01-29T23:40:06.706Z,1.32
2023-01-29T23:43:06.710Z,1.01
2023-01-29T23:46:06.592Z,1.31
2023-01-29T23:49:06.789Z,1.09
2023-01-29T23:52:06.749Z,0.87
2023-01-29T23:55:06.659Z,1.22
2023-01-29T23:58:06.648Z,1.34
